Time;durP1;ratioP1;P1;durP2;ratioP2;P2;SDS_P1;SDS_P2;PMS_P1;PMS_P2;Temp;Humidity;BMP_temperature;BMP_pressure;BME280_temperature;BME280_humidity;BME280_pressure;Samples;Min_cycle;Max_cycle;Signal;HPM_P1;HPM_P2
2023/03/02 00:01:10;;;;;;;20.67;6.57;;;5.60;40.30;;;;;;4982222;28;20640;-50
2023/03/02 00:03:40;;;;;;;11.35;6.10;;;5.60;40.40;;;;;;4980913;28;20058;-46
2023/03/02 00:06:09;;;;;;;13.00;6.15;;;5.60;40.40;;;;;;4984127;28;20053;-48
2023/03/02 00:08:37;;;;;;;11.77;6.22;;;5.60;40.40;;;;;;4983036;28;20140;-48
2023/03/02 00:11:05;;;;;;;9.48;5.93;;;5.60;40.40;;;;;;4980135;28;20058;-47
2023/03/02 00:13:35;;;;;;;9.38;5.47;;;5.60;40.40;;;;;;4981234;28;20050;-48
2023/03/02 00:16:02;;;;;;;9.82;5.47;;;5.60;40.50;;;;;;4983828;28;20530;-49
2023/03/02 00:18:30;;;;;;;9.25;5.28;;;5.60;40.60;;;;;;4984355;28;20046;-47
2023/03/02 00:20:58;;;;;;;14.30;6.38;;;5.60;40.60;;;;;;4981406;28;20048;-50
2023/03/02 00:23:26;;;;;;;11.05;6.05;;;5.60;40.70;;;;;;4981268;28;20057;-47
2023/03/02 00:25:53;;;;;;;11.13;5.55;;;5.60;40.70;;;;;;4980021;28;20051;-47
2023/03/02 00:28:20;;;;;;;12.60;6.22;;;5.60;40.70;;;;;;4981107;28;20054;-47
2023/03/02 00:30:47;;;;;;;11.52;5.95;;;5.60;40.70;;;;;;4982063;28;20046;-48
2023/03/02 00:33:15;;;;;;;11.02;6.05;;;5.60;40.60;;;;;;4983224;28;20090;-46
2023/03/02 00:35:42;;;;;;;10.75;5.65;;;5.60;40.60;;;;;;4982683;28;20058;-48
2023/03/02 00:38:11;;;;;;;13.27;6.32;;;5.60;40.50;;;;;;4981885;28;20497;-47
2023/03/02 00:40:38;;;;;;;14.13;7.03;;;5.60;40.50;;;;;;4980001;28;20065;-47
2023/03/02 00:43:05;;;;;;;11.63;6.05;;;5.60;40.50;;;;;;4982213;28;20076;-46
2023/03/02 00:45:32;;;;;;;12.80;6.38;;;5.60;40.50;;;;;;4980812;28;20436;-47
2023/03/02 00:47:59;;;;;;;12.35;6.22;;;5.60;40.40;;;;;;4983003;28;20058;-50
2023/03/02 00:50:27;;;;;;;13.52;6.57;;;5.70;40.50;;;;;;4981974;28;20424;-52
2023/03/02 00:52:54;;;;;;;13.55;6.65;;;5.60;40.40;;;;;;4981837;28;20049;-48
2023/03/02 00:55:23;;;;;;;15.45;6.65;;;5.60;40.30;;;;;;4979686;28;20422;-45
2023/03/02 00:57:54;;;;;;;13.18;6.25;;;5.60;40.20;;;;;;4982361;28;20054;-52
2023/03/02 01:00:22;;;;;;;11.13;6.35;;;5.60;40.30;;;;;;4982555;28;20061;-47
2023/03/02 01:02:50;;;;;;;13.93;6.43;;;5.60;40.50;;;;;;4982108;28;20050;-50
2023/03/02 01:05:17;;;;;;;12.38;6.57;;;5.70;40.70;;;;;;4979845;28;20062;-47
2023/03/02 01:07:45;;;;;;;13.68;7.22;;;5.70;40.70;;;;;;4981578;28;20050;-48
2023/03/02 01:10:13;;;;;;;11.80;5.72;;;5.70;40.80;;;;;;4980786;28;20054;-50
2023/03/02 01:12:41;;;;;;;14.27;6.93;;;5.70;40.80;;;;;;4979858;28;20486;-48
2023/03/02 01:15:10;;;;;;;13.90;6.35;;;5.70;40.80;;;;;;4981957;28;20418;-49
2023/03/02 01:17:38;;;;;;;13.25;6.63;;;5.70;40.80;;;;;;4981905;28;20050;-46
2023/03/02 01:20:08;;;;;;;11.60;6.40;;;5.60;40.80;;;;;;4980734;28;20062;-46
2023/03/02 01:22:35;;;;;;;12.68;6.65;;;5.60;40.80;;;;;;4978139;28;20684;-48
2023/03/02 01:25:03;;;;;;;14.80;7.18;;;5.60;40.70;;;;;;4981082;28;20069;-49
2023/03/02 01:27:30;;;;;;;11.35;6.07;;;5.60;40.80;;;;;;4980121;28;20436;-49
2023/03/02 01:29:59;;;;;;;11.93;6.30;;;5.50;40.80;;;;;;4981876;28;20528;-47
2023/03/02 01:32:26;;;;;;;12.45;6.13;;;5.50;41.30;;;;;;4980325;28;21278;-45
2023/03/02 01:34:53;;;;;;;14.98;6.53;;;5.50;40.90;;;;;;4981832;28;20057;-48
2023/03/02 01:37:21;;;;;;;11.98;6.50;;;5.40;40.90;;;;;;4981184;28;20061;-48
2023/03/02 01:39:49;;;;;;;12.88;6.22;;;5.40;41.00;;;;;;4979896;28;20057;-47
2023/03/02 01:42:16;;;;;;;13.70;6.50;;;5.40;41.10;;;;;;4976232;28;20058;-48
2023/03/02 01:44:46;;;;;;;13.88;6.82;;;5.40;41.10;;;;;;4981113;28;20078;-51
2023/03/02 01:47:17;;;;;;;10.60;6.18;;;5.40;41.20;;;;;;4981393;28;20070;-49
2023/03/02 01:49:49;;;;;;;12.38;6.15;;;5.40;41.20;;;;;;4980122;28;20491;-50
2023/03/02 01:52:18;;;;;;;10.60;5.53;;;5.30;41.20;;;;;;4976130;28;20435;-50
2023/03/02 01:54:48;;;;;;;15.40;6.93;;;5.30;41.30;;;;;;4980629;28;20081;-49
2023/03/02 01:57:21;;;;;;;9.68;5.60;;;5.30;41.30;;;;;;4979241;28;20054;-47
2023/03/02 01:59:52;;;;;;;12.40;5.93;;;5.30;41.30;;;;;;4981215;28;20046;-50
2023/03/02 02:02:21;;;;;;;14.35;7.20;;;5.30;41.30;;;;;;4958306;23;20406;-88
2023/03/02 02:04:50;;;;;;;12.60;6.45;;;5.30;41.40;;;;;;4939004;28;20047;-89
2023/03/02 02:07:17;;;;;;;14.63;7.38;;;5.30;41.40;;;;;;4943200;28;20069;-88
2023/03/02 02:09:47;;;;;;;12.60;6.15;;;5.30;41.50;;;;;;4940881;28;21111;-87
2023/03/02 02:12:16;;;;;;;14.73;7.50;;;5.20;41.40;;;;;;4940483;28;20058;-88
2023/03/02 02:14:45;;;;;;;12.77;6.32;;;5.20;41.40;;;;;;4942501;28;20058;-88
2023/03/02 02:17:13;;;;;;;10.68;5.72;;;5.20;41.40;;;;;;4941785;28;20059;-89
2023/03/02 02:19:59;;;;;;;14.23;6.95;;;5.20;41.50;;;;;;4942934;28;20414;-88
2023/03/02 02:22:39;;;;;;;14.63;6.43;;;5.20;41.50;;;;;;4941133;28;20058;-89
2023/03/02 02:25:16;;;;;;;17.10;6.38;;;5.20;41.60;;;;;;4938813;28;20500;-88
2023/03/02 02:27:46;;;;;;;16.13;6.70;;;5.20;41.60;;;;;;4942008;28;20050;-89
2023/03/02 02:30:16;;;;;;;14.82;6.82;;;5.10;41.50;;;;;;4939949;28;20070;-89
2023/03/02 02:32:46;;;;;;;13.68;6.82;;;5.10;41.50;;;;;;4944765;28;20047;-88
2023/03/02 02:35:18;;;;;;;10.95;5.82;;;5.10;41.40;;;;;;4945633;28;20055;-89
2023/03/02 02:37:49;;;;;;;12.23;5.88;;;5.10;41.60;;;;;;4943705;28;20062;-89
2023/03/02 02:40:21;;;;;;;13.27;6.97;;;5.00;41.60;;;;;;4943568;28;20066;-89
2023/03/02 02:42:52;;;;;;;16.85;7.50;;;5.00;41.60;;;;;;4944396;28;20055;-89
2023/03/02 02:45:23;;;;;;;12.27;6.55;;;5.00;41.70;;;;;;4945623;28;20055;-89
2023/03/02 02:47:52;;;;;;;13.55;6.57;;;5.00;41.80;;;;;;4943418;28;20054;-89
2023/03/02 02:50:22;;;;;;;12.05;6.35;;;5.00;41.80;;;;;;4946843;28;20418;-88
2023/03/02 02:53:12;;;;;;;11.98;6.55;;;4.90;41.80;;;;;;4946301;28;20082;-87
2023/03/02 02:55:41;;;;;;;10.45;5.82;;;4.90;41.90;;;;;;4952122;28;20077;-88
2023/03/02 02:58:23;;;;;;;15.05;6.70;;;4.90;41.90;;;;;;4943220;28;20055;-88
2023/03/02 03:00:50;;;;;;;15.05;7.28;;;5.00;42.00;;;;;;4944434;28;20070;-89
2023/03/02 03:03:29;;;;;;;13.48;7.32;;;4.90;41.90;;;;;;4944078;28;20507;-89
2023/03/02 03:05:58;;;;;;;14.77;7.13;;;4.90;41.90;;;;;;4945843;28;20067;-89
2023/03/02 03:08:52;;;;;;;12.70;6.47;;;4.90;41.90;;;;;;4945033;28;20051;-90
2023/03/02 03:11:23;;;;;;;16.33;7.20;;;4.80;41.70;;;;;;4944691;28;20496;-88
2023/03/02 03:14:00;;;;;;;18.25;7.80;;;4.80;41.70;;;;;;4943604;28;20062;-88
2023/03/02 03:16:29;;;;;;;16.33;8.13;;;4.80;41.70;;;;;;4946448;28;20047;-90
2023/03/02 03:18:59;;;;;;;15.05;7.85;;;4.80;41.80;;;;;;4944987;28;20059;-90
2023/03/02 03:21:27;;;;;;;14.68;6.85;;;4.70;41.80;;;;;;4944275;28;20061;-90
2023/03/02 03:23:54;;;;;;;12.82;6.97;;;4.70;41.90;;;;;;4946159;28;20055;-89
2023/03/02 03:26:21;;;;;;;12.35;7.40;;;4.70;42.00;;;;;;4947213;28;20638;-90
2023/03/02 03:28:49;;;;;;;13.63;7.03;;;4.60;42.00;;;;;;4946700;28;20054;-91
2023/03/02 03:31:17;;;;;;;12.88;6.60;;;4.60;42.10;;;;;;4946478;28;20051;-90
2023/03/02 03:33:45;;;;;;;11.30;5.57;;;4.60;42.20;;;;;;4946343;28;20407;-89
2023/03/02 03:36:12;;;;;;;15.20;6.57;;;4.60;42.30;;;;;;4945164;28;20518;-89
2023/03/02 03:38:40;;;;;;;13.13;6.57;;;4.60;42.30;;;;;;4950728;28;20058;-90
2023/03/02 03:41:07;;;;;;;11.90;6.13;;;4.60;42.30;;;;;;4948622;28;20839;-91
2023/03/02 03:43:35;;;;;;;12.73;6.53;;;4.60;42.40;;;;;;4944508;28;20491;-90
2023/03/02 03:46:02;;;;;;;11.73;6.72;;;4.60;42.40;;;;;;4950118;28;20066;-91
2023/03/02 03:48:30;;;;;;;12.98;6.80;;;4.60;42.50;;;;;;4946588;28;20074;-90
2023/03/02 03:50:59;;;;;;;13.88;7.22;;;4.60;42.50;;;;;;4944386;28;20051;-90
2023/03/02 03:53:26;;;;;;;12.13;6.32;;;4.60;42.50;;;;;;4945098;28;20054;-89
2023/03/02 03:55:55;;;;;;;10.95;6.25;;;4.60;42.50;;;;;;4951527;28;20521;-89
2023/03/02 03:58:23;;;;;;;11.68;5.80;;;4.60;42.40;;;;;;4946597;28;20058;-90
2023/03/02 04:00:51;;;;;;;12.88;6.60;;;4.70;42.40;;;;;;4945292;28;20521;-89
2023/03/02 04:03:19;;;;;;;13.85;6.97;;;4.70;42.40;;;;;;4945637;28;20423;-90
2023/03/02 04:05:48;;;;;;;14.90;6.50;;;4.70;42.40;;;;;;4945188;28;20055;-90
2023/03/02 04:08:16;;;;;;;11.57;6.43;;;4.60;42.30;;;;;;4947505;28;20055;-89
2023/03/02 04:10:43;;;;;;;10.30;6.00;;;4.70;42.30;;;;;;4949321;28;20081;-90
2023/03/02 04:13:11;;;;;;;11.35;5.50;;;4.70;42.30;;;;;;4944804;28;20066;-90
2023/03/02 04:15:40;;;;;;;12.25;6.45;;;4.60;42.30;;;;;;4943704;28;20059;-89
2023/03/02 04:18:08;;;;;;;13.98;7.20;;;4.60;42.40;;;;;;4946519;28;20059;-89
2023/03/02 04:20:35;;;;;;;12.82;6.72;;;4.60;42.50;;;;;;4946777;28;20499;-89
2023/03/02 04:23:04;;;;;;;12.68;6.80;;;4.60;42.50;;;;;;4952493;28;20073;-89
2023/03/02 04:25:32;;;;;;;11.15;6.35;;;4.60;42.50;;;;;;4956002;28;20516;-88
2023/03/02 04:27:59;;;;;;;12.73;6.65;;;4.60;42.80;;;;;;4944658;28;20503;-89
2023/03/02 04:30:27;;;;;;;16.27;7.35;;;4.60;42.60;;;;;;4947759;28;20065;-89
2023/03/02 04:32:56;;;;;;;12.00;6.75;;;4.60;42.70;;;;;;4946207;28;20506;-89
2023/03/02 04:35:24;;;;;;;14.75;7.65;;;4.50;43.00;;;;;;4946662;28;20058;-90
2023/03/02 04:37:51;;;;;;;15.63;7.43;;;4.50;42.60;;;;;;4944665;28;20062;-90
2023/03/02 04:40:22;;;;;;;15.00;6.70;;;4.50;42.70;;;;;;4951899;28;20065;-96
2023/03/02 04:42:50;;;;;;;12.13;6.55;;;4.50;42.80;;;;;;4944013;28;20051;-88
2023/03/02 04:45:20;;;;;;;13.98;6.95;;;4.50;42.70;;;;;;4949647;28;20384;-89
2023/03/02 04:47:47;;;;;;;13.38;6.68;;;4.50;42.80;;;;;;4950728;28;20051;-88
2023/03/02 04:50:15;;;;;;;16.10;7.53;;;4.50;42.80;;;;;;4946651;28;20051;-89
2023/03/02 04:52:42;;;;;;;14.60;6.50;;;4.50;42.80;;;;;;4945225;28;20066;-89
2023/03/02 04:55:15;;;;;;;15.80;7.20;;;4.50;42.80;;;;;;4942674;28;20077;-90
2023/03/02 04:57:44;;;;;;;14.88;7.10;;;4.50;42.90;;;;;;4945484;28;20430;-90
2023/03/02 05:00:12;;;;;;;12.73;6.18;;;4.40;42.90;;;;;;4944910;28;20101;-89
2023/03/02 05:02:41;;;;;;;13.05;6.18;;;4.40;42.90;;;;;;4944945;28;20059;-93
2023/03/02 05:05:15;;;;;;;14.60;6.88;;;4.40;43.00;;;;;;4944301;28;20062;-88
2023/03/02 05:07:43;;;;;;;14.07;6.80;;;4.40;43.00;;;;;;4944743;28;20415;-90
2023/03/02 05:10:11;;;;;;;14.65;7.13;;;4.40;43.10;;;;;;4943756;28;20062;-89
2023/03/02 05:12:56;;;;;;;11.90;6.47;;;4.40;43.00;;;;;;4945402;28;20207;-89
2023/03/02 05:15:38;;;;;;;11.23;5.43;;;4.40;43.00;;;;;;4947604;28;20058;-88
2023/03/02 05:18:09;;;;;;;13.35;6.65;;;4.40;43.00;;;;;;4940488;28;20050;-86
2023/03/02 05:20:38;;;;;;;12.30;6.43;;;4.40;43.00;;;;;;4947318;28;20075;-87
2023/03/02 05:23:08;;;;;;;12.65;5.97;;;4.40;43.00;;;;;;4946445;28;20426;-87
2023/03/02 05:25:37;;;;;;;13.43;5.95;;;4.40;43.10;;;;;;4943041;28;20075;-88
2023/03/02 05:28:05;;;;;;;11.50;5.80;;;4.40;43.10;;;;;;4945865;28;20066;-87
2023/03/02 05:30:37;;;;;;;13.68;6.78;;;4.40;43.10;;;;;;4945907;28;20055;-87
2023/03/02 05:33:04;;;;;;;13.07;6.80;;;4.40;43.10;;;;;;4944524;28;20058;-88
2023/03/02 05:35:31;;;;;;;13.35;7.20;;;4.40;43.10;;;;;;4949635;28;20545;-87
2023/03/02 05:37:59;;;;;;;12.80;6.80;;;4.30;43.10;;;;;;4950576;28;20054;-87
2023/03/02 05:40:26;;;;;;;12.88;7.13;;;4.30;43.20;;;;;;4943039;28;20066;-87
2023/03/02 05:42:54;;;;;;;15.88;7.30;;;4.30;43.20;;;;;;4945357;28;20062;-87
2023/03/02 05:45:35;;;;;;;11.85;6.15;;;4.30;43.20;;;;;;4955145;28;20430;-93
2023/03/02 05:48:07;;;;;;;12.70;6.57;;;4.30;43.30;;;;;;4949870;28;20058;-87
2023/03/02 05:50:35;;;;;;;11.00;6.40;;;4.30;43.20;;;;;;4948125;28;20055;-88
2023/03/02 05:53:03;;;;;;;15.65;6.32;;;4.30;43.30;;;;;;4945033;28;20524;-87
2023/03/02 05:55:30;;;;;;;20.15;8.65;;;4.30;43.30;;;;;;4943326;28;20047;-87
2023/03/02 05:57:58;;;;;;;14.27;7.68;;;4.30;43.30;;;;;;4941036;28;20526;-85
2023/03/02 06:00:25;;;;;;;12.98;7.15;;;4.30;43.30;;;;;;4942462;28;20054;-87
2023/03/02 06:02:53;;;;;;;12.88;6.43;;;4.30;43.30;;;;;;4942030;28;20052;-88
2023/03/02 06:05:23;;;;;;;15.55;7.47;;;4.30;43.30;;;;;;4936268;28;20059;-88
2023/03/02 06:07:50;;;;;;;14.02;7.40;;;4.30;43.30;;;;;;4936351;28;20054;-87
2023/03/02 06:10:17;;;;;;;19.50;7.45;;;4.30;43.30;;;;;;4939561;28;20054;-87
2023/03/02 06:12:45;;;;;;;14.13;7.13;;;4.30;43.30;;;;;;4944263;28;20059;-88
2023/03/02 06:15:12;;;;;;;13.20;6.80;;;4.30;43.30;;;;;;4949560;28;20059;-88
2023/03/02 06:17:41;;;;;;;13.65;7.30;;;4.30;43.30;;;;;;4943163;28;20055;-88
2023/03/02 06:20:10;;;;;;;17.20;8.18;;;4.30;43.40;;;;;;4941993;28;20055;-88
2023/03/02 06:22:43;;;;;;;15.02;7.70;;;4.30;43.40;;;;;;4940502;28;20403;-88
2023/03/02 06:25:13;;;;;;;13.40;7.28;;;4.30;43.40;;;;;;4943230;28;20055;-86
2023/03/02 06:27:42;;;;;;;16.35;8.23;;;4.30;43.40;;;;;;4943129;28;20945;-89
2023/03/02 06:30:14;;;;;;;12.13;6.57;;;4.20;43.40;;;;;;4940336;28;20085;-89
2023/03/02 06:32:42;;;;;;;13.02;7.10;;;4.30;43.50;;;;;;4939762;28;20055;-89
2023/03/02 06:35:11;;;;;;;21.45;8.52;;;4.30;43.50;;;;;;4939976;28;20063;-89
2023/03/02 06:37:40;;;;;;;17.42;8.02;;;4.30;43.60;;;;;;4950195;28;20499;-89
2023/03/02 06:40:10;;;;;;;14.82;7.28;;;4.20;43.50;;;;;;4948641;28;20052;-88
2023/03/02 06:42:42;;;;;;;14.10;6.82;;;4.30;43.60;;;;;;4943418;28;20055;-94
2023/03/02 06:45:11;;;;;;;15.80;6.70;;;4.30;43.60;;;;;;4941976;28;20050;-88
2023/03/02 06:47:39;;;;;;;14.15;7.25;;;4.30;43.60;;;;;;4941586;28;20058;-88
2023/03/02 06:50:07;;;;;;;13.85;7.30;;;4.30;43.70;;;;;;4943768;28;20062;-89
2023/03/02 06:52:35;;;;;;;18.27;7.93;;;4.30;43.70;;;;;;4945401;28;20066;-88
2023/03/02 06:55:04;;;;;;;12.70;6.88;;;4.30;43.70;;;;;;4942170;28;20059;-88
2023/03/02 06:57:33;;;;;;;12.80;6.95;;;4.30;43.80;;;;;;4944097;28;20073;-89
2023/03/02 07:00:06;;;;;;;16.92;7.75;;;4.30;43.70;;;;;;4944623;28;20495;-88
2023/03/02 07:02:33;;;;;;;15.32;7.80;;;4.40;43.70;;;;;;4943972;28;20062;-89
2023/03/02 07:05:00;;;;;;;17.58;7.57;;;4.40;43.80;;;;;;4947092;28;20059;-88
2023/03/02 07:07:28;;;;;;;18.45;8.38;;;4.40;43.80;;;;;;4948224;28;20054;-89
2023/03/02 07:09:55;;;;;;;21.65;9.13;;;4.40;43.60;;;;;;4944525;28;20950;-91
2023/03/02 07:12:24;;;;;;;17.10;7.72;;;4.50;43.50;;;;;;4944867;28;20055;-90
2023/03/02 07:14:51;;;;;;;19.85;7.72;;;4.50;43.50;;;;;;4941348;28;20063;-90
2023/03/02 07:17:19;;;;;;;17.17;7.75;;;4.50;43.60;;;;;;4946953;28;20053;-91
2023/03/02 07:19:46;;;;;;;16.25;8.38;;;4.50;43.70;;;;;;4947219;28;20051;-88
2023/03/02 07:22:14;;;;;;;15.18;7.40;;;4.60;43.80;;;;;;4946009;28;20062;-91
2023/03/02 07:24:48;;;;;;;16.15;7.78;;;4.60;43.70;;;;;;4946394;28;21103;-90
2023/03/02 07:27:15;;;;;;;;;;;4.70;44.30;;;;;;4954807;28;20043;-91
2023/03/02 07:29:44;;;;;;;14.65;7.07;;;4.70;43.90;;;;;;4945382;28;20449;-90
2023/03/02 07:32:11;;;;;;;20.00;8.55;;;4.80;43.90;;;;;;4947978;28;20077;-92
2023/03/02 07:34:39;;;;;;;18.52;7.82;;;4.80;44.10;;;;;;4944660;28;20492;-91
2023/03/02 07:37:06;;;;;;;15.75;7.97;;;4.80;43.80;;;;;;4946885;28;20066;-92
2023/03/02 07:39:36;;;;;;;18.25;8.63;;;4.80;43.60;;;;;;4945050;28;20062;-90
2023/03/02 07:42:07;;;;;;;18.67;8.50;;;4.70;43.50;;;;;;4945981;28;20431;-91
2023/03/02 07:44:38;;;;;;;18.85;9.48;;;4.70;43.60;;;;;;4945922;28;20469;-92
2023/03/02 07:47:07;;;;;;;20.45;9.18;;;4.60;43.90;;;;;;4944145;28;20058;-91
2023/03/02 07:49:35;;;;;;;19.45;9.50;;;4.50;44.00;;;;;;4946700;28;20289;-89
2023/03/02 07:52:02;;;;;;;17.88;8.23;;;4.50;44.20;;;;;;4951247;28;20059;-89
2023/03/02 07:54:30;;;;;;;21.10;9.38;;;4.40;44.40;;;;;;4951621;28;20062;-89
2023/03/02 07:56:57;;;;;;;19.40;9.45;;;4.40;44.70;;;;;;4953220;28;20054;-89
2023/03/02 07:59:29;;;;;;;16.83;8.77;;;4.30;44.80;;;;;;4952250;28;20055;-89
2023/03/02 08:01:57;;;;;;;19.60;9.15;;;4.40;45.00;;;;;;4947346;28;20059;-88
2023/03/02 08:04:26;;;;;;;25.65;9.68;;;4.30;45.10;;;;;;4950264;28;20495;-89
2023/03/02 08:06:54;;;;;;;21.15;10.60;;;4.40;45.70;;;;;;4944053;28;20062;-90
2023/03/02 08:09:21;;;;;;;17.45;9.15;;;4.30;45.50;;;;;;4944168;28;20055;-89
2023/03/02 08:11:48;;;;;;;21.13;9.43;;;4.40;45.80;;;;;;4946248;28;20054;-89
2023/03/02 08:14:21;;;;;;;21.00;9.23;;;4.40;45.70;;;;;;4947287;28;20059;-95
2023/03/02 08:16:51;;;;;;;16.83;9.18;;;4.40;46.00;;;;;;4948820;28;20055;-88
2023/03/02 08:19:18;;;;;;;16.35;8.75;;;4.40;46.20;;;;;;4946711;28;20051;-88
2023/03/02 08:21:47;;;;;;;18.10;8.85;;;4.40;45.40;;;;;;4947146;28;20066;-88
2023/03/02 08:24:14;;;;;;;18.85;8.52;;;4.50;45.30;;;;;;4953676;28;20047;-88
2023/03/02 08:26:41;;;;;;;18.80;10.15;;;4.50;45.20;;;;;;4945945;28;20082;-88
2023/03/02 08:29:09;;;;;;;19.90;10.18;;;4.60;45.10;;;;;;4946041;28;20062;-87
2023/03/02 08:31:36;;;;;;;17.95;8.98;;;4.70;45.20;;;;;;4946348;28;20183;-88
2023/03/02 08:34:04;;;;;;;19.45;10.25;;;4.70;46.20;;;;;;4946158;28;20063;-89
2023/03/02 08:36:32;;;;;;;23.55;10.35;;;4.80;46.60;;;;;;4947863;28;20051;-87
2023/03/02 08:39:01;;;;;;;18.25;9.82;;;4.80;46.60;;;;;;4945463;28;20389;-89
2023/03/02 08:41:44;;;;;;;21.00;9.95;;;4.90;46.60;;;;;;4945786;28;20532;-92
2023/03/02 08:44:16;;;;;;;19.10;9.35;;;4.90;46.30;;;;;;4948984;28;20055;-90
2023/03/02 08:46:44;;;;;;;19.77;9.77;;;4.90;45.90;;;;;;4943018;28;20062;-89
2023/03/02 08:49:12;;;;;;;21.52;9.93;;;4.90;45.80;;;;;;4944393;28;20043;-89
2023/03/02 08:51:39;;;;;;;16.40;9.65;;;4.90;45.80;;;;;;4946437;28;20074;-88
2023/03/02 08:54:09;;;;;;;26.42;10.10;;;5.00;45.80;;;;;;4951131;28;20059;-89
2023/03/02 08:56:39;;;;;;;22.55;10.73;;;4.90;45.90;;;;;;4945724;28;20063;-88
2023/03/02 08:59:12;;;;;;;17.60;9.98;;;5.00;46.00;;;;;;4952730;28;20511;-88
2023/03/02 09:01:40;;;;;;;21.15;11.30;;;5.00;46.10;;;;;;4946540;28;20066;-87
2023/03/02 09:04:09;;;;;;;26.27;10.82;;;5.10;46.20;;;;;;4950943;28;20059;-89
2023/03/02 09:06:39;;;;;;;22.52;10.73;;;5.20;46.30;;;;;;4946303;28;20054;-88
2023/03/02 09:09:09;;;;;;;28.20;10.73;;;5.20;46.10;;;;;;4945161;28;20499;-88
2023/03/02 09:11:36;;;;;;;22.45;10.82;;;5.30;46.10;;;;;;4945558;28;20054;-88
2023/03/02 09:14:04;;;;;;;22.95;11.07;;;5.30;46.10;;;;;;4946400;28;20055;-88
2023/03/02 09:16:31;;;;;;;19.92;9.82;;;5.40;46.10;;;;;;4946536;28;20051;-88
2023/03/02 09:18:58;;;;;;;19.00;10.20;;;5.50;46.00;;;;;;4944677;28;20051;-89
2023/03/02 09:21:26;;;;;;;18.80;9.18;;;5.50;45.70;;;;;;4944336;28;20055;-88
2023/03/02 09:23:57;;;;;;;20.20;9.90;;;5.60;45.70;;;;;;4946259;28;20061;-89
2023/03/02 09:26:26;;;;;;;23.45;9.80;;;5.70;45.70;;;;;;4944674;28;20407;-88
2023/03/02 09:28:54;;;;;;;21.55;10.68;;;5.80;45.50;;;;;;4952037;28;20051;-88
2023/03/02 09:31:21;;;;;;;19.63;9.07;;;5.90;45.60;;;;;;4944890;28;20063;-89
2023/03/02 09:33:49;;;;;;;18.25;9.43;;;6.00;45.60;;;;;;4949938;28;20055;-89
2023/03/02 09:36:22;;;;;;;26.73;10.70;;;6.10;45.30;;;;;;4943840;28;20066;-88
2023/03/02 09:38:49;;;;;;;18.80;9.43;;;6.20;44.90;;;;;;4944082;28;20047;-88
2023/03/02 09:41:44;;;;;;;22.63;10.23;;;6.30;44.70;;;;;;4944146;28;20062;-88
2023/03/02 09:44:25;;;;;;;25.00;10.73;;;6.40;44.60;;;;;;4945178;28;20063;-88
2023/03/02 09:46:56;;;;;;;19.88;10.05;;;6.50;44.50;;;;;;4945694;28;20055;-88
2023/03/02 09:49:37;;;;;;;18.58;9.32;;;6.60;44.50;;;;;;4947225;28;20851;-88
2023/03/02 09:52:15;;;;;;;21.77;9.40;;;6.80;44.30;;;;;;4944442;28;20492;-88
2023/03/02 09:54:42;;;;;;;19.50;9.43;;;6.80;44.10;;;;;;4948450;28;20059;-88
2023/03/02 09:57:20;;;;;;;15.57;8.88;;;6.90;43.90;;;;;;4944898;28;20051;-89
2023/03/02 09:59:53;;;;;;;22.48;9.82;;;7.00;43.70;;;;;;4944839;28;20089;-89
2023/03/02 10:02:26;;;;;;;18.08;9.40;;;7.10;43.40;;;;;;4941138;28;20062;-90
2023/03/02 10:04:56;;;;;;;19.35;9.32;;;7.20;43.20;;;;;;4942899;28;20054;-89
2023/03/02 10:07:28;;;;;;;20.25;9.00;;;7.30;42.90;;;;;;4945709;28;20479;-88
2023/03/02 10:10:01;;;;;;;21.30;10.05;;;7.40;42.70;;;;;;4950854;28;20490;-89
2023/03/02 10:12:44;;;;;;;18.58;9.32;;;7.40;42.50;;;;;;4953316;28;20051;-89
2023/03/02 10:15:16;;;;;;;17.50;8.80;;;7.50;42.20;;;;;;4939170;28;20055;-87
2023/03/02 10:17:58;;;;;;;14.98;8.25;;;7.50;42.20;;;;;;4942219;28;20056;-88
2023/03/02 10:20:32;;;;;;;16.45;8.93;;;7.60;42.00;;;;;;4947396;28;20132;-89
2023/03/02 10:23:08;;;;;;;20.48;9.15;;;7.70;42.10;;;;;;4941315;28;20523;-88
2023/03/02 10:25:43;;;;;;;18.23;8.18;;;7.80;42.10;;;;;;4942979;28;20062;-90
2023/03/02 10:28:19;;;;;;;18.02;8.63;;;7.90;42.10;;;;;;4941403;28;20055;-89
2023/03/02 10:30:48;;;;;;;18.88;9.43;;;7.90;42.00;;;;;;4942747;28;20067;-88
2023/03/02 10:33:18;;;;;;;16.30;8.93;;;8.00;42.10;;;;;;4945902;28;20065;-89
2023/03/02 10:35:48;;;;;;;21.17;8.65;;;8.10;42.00;;;;;;4940888;28;20065;-88
2023/03/02 10:38:17;;;;;;;17.67;8.18;;;8.20;42.10;;;;;;4941256;28;20059;-89
2023/03/02 10:40:48;;;;;;;21.02;9.65;;;8.20;42.10;;;;;;4938572;28;20508;-88
2023/03/02 10:43:20;;;;;;;19.98;9.45;;;8.30;41.70;;;;;;4937554;28;20058;-89
2023/03/02 10:45:59;;;;;;;19.55;9.43;;;8.40;41.20;;;;;;4940471;28;20059;-88
2023/03/02 10:48:27;;;;;;;16.55;8.82;;;8.50;41.10;;;;;;4944075;28;20051;-88
2023/03/02 10:50:55;;;;;;;20.50;8.15;;;8.60;41.40;;;;;;4944472;28;20047;-88
2023/03/02 10:53:22;;;;;;;15.25;8.73;;;8.70;41.50;;;;;;4947668;28;20488;-89
2023/03/02 10:55:52;;;;;;;12.05;7.18;;;8.80;41.40;;;;;;4946782;28;20510;-88
2023/03/02 10:58:25;;;;;;;14.98;7.63;;;8.90;41.40;;;;;;4948569;28;20051;-88
2023/03/02 11:00:57;;;;;;;14.75;8.00;;;9.00;41.20;;;;;;4950737;28;20058;-88
2023/03/02 11:03:26;;;;;;;20.63;9.55;;;9.10;41.70;;;;;;4944540;28;20624;-89
2023/03/02 11:05:53;;;;;;;20.45;8.93;;;9.10;40.50;;;;;;4946918;28;20108;-88
2023/03/02 11:08:25;;;;;;;17.52;8.68;;;9.10;40.40;;;;;;4953387;28;20905;-94
2023/03/02 11:10:55;;;;;;;17.30;8.35;;;9.20;40.40;;;;;;4944757;28;20552;-88
2023/03/02 11:13:38;;;;;;;14.30;8.13;;;9.30;40.80;;;;;;4948090;28;20062;-88
2023/03/02 11:16:23;;;;;;;16.10;8.02;;;9.40;41.00;;;;;;4945572;28;20066;-87
2023/03/02 11:18:55;;;;;;;13.52;7.03;;;9.50;40.80;;;;;;4945107;28;20058;-90
2023/03/02 11:21:29;;;;;;;16.30;7.95;;;9.60;41.00;;;;;;4949778;28;20502;-88
2023/03/02 11:24:10;;;;;;;18.30;8.98;;;9.60;40.80;;;;;;4952191;28;20499;-90
2023/03/02 11:26:42;;;;;;;15.40;8.05;;;9.70;40.80;;;;;;4944740;28;20062;-89
2023/03/02 11:29:21;;;;;;;16.35;7.22;;;9.80;40.90;;;;;;4946057;28;20062;-89
2023/03/02 11:31:52;;;;;;;17.17;7.18;;;9.90;40.80;;;;;;4946164;28;20058;-90
2023/03/02 11:34:29;;;;;;;17.15;7.80;;;9.90;40.70;;;;;;4944066;28;20518;-89
2023/03/02 11:37:14;;;;;;;13.45;7.03;;;10.00;40.60;;;;;;4944715;28;20503;-89
2023/03/02 11:39:56;;;;;;;14.25;6.68;;;10.10;40.60;;;;;;4945675;28;20632;-89
2023/03/02 11:42:28;;;;;;;13.40;6.78;;;10.10;40.30;;;;;;4949924;28;20051;-92
2023/03/02 11:44:58;;;;;;;12.90;6.45;;;10.20;40.50;;;;;;4946039;28;20057;-88
2023/03/02 11:47:26;;;;;;;14.20;6.75;;;10.30;40.50;;;;;;4945730;28;20051;-89
2023/03/02 11:49:57;;;;;;;17.10;6.90;;;10.30;40.40;;;;;;4945255;28;20055;-89
2023/03/02 11:52:28;;;;;;;14.38;7.15;;;10.40;39.50;;;;;;4945246;28;20058;-89
2023/03/02 11:54:59;;;;;;;14.13;5.85;;;10.50;39.50;;;;;;4946865;28;20054;-90
2023/03/02 11:57:32;;;;;;;13.68;6.72;;;10.50;40.00;;;;;;4954722;28;20059;-88
2023/03/02 12:00:03;;;;;;;12.23;5.93;;;10.70;40.20;;;;;;4947677;28;20058;-89
2023/03/02 12:02:30;;;;;;;12.55;5.75;;;10.70;40.20;;;;;;4946662;28;20063;-89
2023/03/02 12:05:06;;;;;;;15.82;5.97;;;10.80;40.10;;;;;;4946553;28;20497;-90
2023/03/02 12:07:34;;;;;;;12.38;5.97;;;10.90;39.50;;;;;;4950416;28;20059;-89
2023/03/02 12:10:05;;;;;;;10.63;4.82;;;10.90;39.80;;;;;;4945499;28;20060;-89
2023/03/02 12:12:48;;;;;;;10.25;4.82;;;11.00;40.10;;;;;;4946152;28;20055;-89
2023/03/02 12:15:36;;;;;;;12.05;5.68;;;11.10;39.80;;;;;;4947675;28;20050;-89
2023/03/02 12:18:45;;;;;;;11.38;5.55;;;11.20;38.90;;;;;;4946853;28;20051;-88
2023/03/02 12:21:15;;;;;;;10.35;4.65;;;11.30;39.00;;;;;;4914373;29;20055;-89
2023/03/02 12:23:57;;;;;;;9.27;5.20;;;11.40;39.40;;;;;;4948794;28;20067;-88
2023/03/02 12:26:34;;;;;;;13.23;4.82;;;11.40;39.30;;;;;;4945485;28;20514;-87
2023/03/02 12:33:14;;;;;;;9.27;4.38;;;11.50;39.20;;;;;;4962053;28;20045;-90
2023/03/02 12:35:44;;;;;;;11.57;4.47;;;11.60;39.30;;;;;;4945740;28;20066;-89
2023/03/02 12:38:25;;;;;;;14.90;4.88;;;11.60;39.20;;;;;;4946222;28;20523;-91
2023/03/02 12:41:23;;;;;;;11.32;4.75;;;11.70;38.80;;;;;;4945184;28;20853;-89
2023/03/02 12:44:07;;;;;;;8.35;3.90;;;11.70;38.90;;;;;;4938637;28;20047;-89
2023/03/02 12:46:39;;;;;;;8.25;4.05;;;11.80;39.10;;;;;;4950079;28;20055;-89
2023/03/02 12:49:17;;;;;;;10.38;5.05;;;11.80;39.00;;;;;;4946679;28;20047;-89
2023/03/02 12:51:52;;;;;;;8.63;4.13;;;11.90;39.30;;;;;;4947872;28;20055;-89
2023/03/02 12:54:22;;;;;;;6.95;3.65;;;11.90;38.90;;;;;;4945142;28;20055;-89
2023/03/02 12:56:50;;;;;;;9.50;3.58;;;11.90;39.10;;;;;;4947726;28;20051;-90
2023/03/02 12:59:22;;;;;;;9.05;3.58;;;11.90;39.20;;;;;;4945957;28;20062;-89
2023/03/02 13:01:49;;;;;;;7.70;3.45;;;12.00;39.20;;;;;;4944553;28;20102;-89
2023/03/02 13:04:25;;;;;;;7.20;3.58;;;12.00;39.10;;;;;;4945091;28;20055;-89
2023/03/02 13:06:54;;;;;;;7.47;3.22;;;12.00;38.90;;;;;;4946593;28;20055;-89